createdAt,value
2018-05-16T00:00:45.170Z,972.08
2018-05-16T00:01:45.335Z,972.12
2018-05-16T00:02:45.166Z,972.13
2018-05-16T00:03:45.165Z,972.15
2018-05-16T00:04:45.167Z,972.16
2018-05-16T00:05:45.164Z,972.15
2018-05-16T00:06:45.164Z,972.15
2018-05-16T00:07:45.235Z,972.15
2018-05-16T00:08:45.168Z,972.14
2018-05-16T00:09:45.164Z,972.13
2018-05-16T00:10:45.163Z,972.13
2018-05-16T00:11:45.166Z,972.14
2018-05-16T00:12:45.221Z,972.13
2018-05-16T00:13:45.179Z,972.12
2018-05-16T00:14:45.165Z,972.16
2018-05-16T00:15:45.162Z,972.14
2018-05-16T00:16:45.206Z,972.09
2018-05-16T00:17:45.162Z,972.10
2018-05-16T00:18:45.166Z,972.11
2018-05-16T00:19:45.177Z,972.12
2018-05-16T00:20:45.162Z,972.15
2018-05-16T00:21:45.205Z,972.13
2018-05-16T00:22:45.162Z,972.17
2018-05-16T00:23:45.157Z,972.11
2018-05-16T00:24:45.158Z,972.12
2018-05-16T00:25:45.162Z,972.08
2018-05-16T00:26:45.194Z,972.10
2018-05-16T00:27:45.168Z,972.07
2018-05-16T00:28:45.158Z,972.07
2018-05-16T00:29:45.155Z,972.10
2018-05-16T00:30:45.161Z,972.11
2018-05-16T00:31:45.306Z,972.10
2018-05-16T00:32:45.864Z,972.11
2018-05-16T00:33:45.155Z,972.13
2018-05-16T00:34:45.179Z,972.06
2018-05-16T00:35:45.151Z,972.09
2018-05-16T00:36:45.156Z,972.12
2018-05-16T00:37:45.233Z,972.10
2018-05-16T00:38:45.156Z,972.13
2018-05-16T00:39:45.188Z,972.14
2018-05-16T00:40:45.151Z,972.14
2018-05-16T00:41:45.154Z,972.18
2018-05-16T00:42:45.190Z,972.15
2018-05-16T00:43:45.148Z,972.16
2018-05-16T00:44:45.165Z,972.09
2018-05-16T00:45:45.149Z,972.09
2018-05-16T00:46:45.148Z,972.10
2018-05-16T00:47:45.194Z,972.08
2018-05-16T00:48:45.155Z,972.03
2018-05-16T00:49:45.144Z,972.08
2018-05-16T00:50:45.145Z,972.06
2018-05-16T00:51:45.146Z,972.04
2018-05-16T00:52:45.194Z,972.09
2018-05-16T00:53:45.145Z,972.08
2018-05-16T00:54:45.145Z,972.07
2018-05-16T00:55:45.145Z,972.10
2018-05-16T00:56:45.149Z,972.10
2018-05-16T00:57:45.196Z,972.14
2018-05-16T00:58:45.149Z,972.19
2018-05-16T00:59:45.143Z,972.17
2018-05-16T01:00:45.144Z,972.19
2018-05-16T01:01:45.149Z,972.16
2018-05-16T01:02:45.193Z,972.13
2018-05-16T01:03:45.145Z,972.14
2018-05-16T01:04:45.140Z,972.10
2018-05-16T01:05:45.142Z,972.10
2018-05-16T01:06:45.183Z,972.10
2018-05-16T01:07:45.142Z,972.11
2018-05-16T01:08:45.141Z,972.12
2018-05-16T01:09:45.136Z,972.11
2018-05-16T01:10:45.138Z,972.11
2018-05-16T01:11:45.180Z,972.09
2018-05-16T01:12:45.136Z,972.09
2018-05-16T01:13:45.137Z,972.12
2018-05-16T01:14:45.320Z,972.07
2018-05-16T01:15:45.143Z,972.04
2018-05-16T01:16:53.076Z,972.11
2018-05-16T01:17:45.133Z,972.07
2018-05-16T01:18:45.134Z,972.08
2018-05-16T01:19:45.573Z,972.12
2018-05-16T01:20:45.133Z,972.12
2018-05-16T01:21:45.185Z,972.12
2018-05-16T01:22:45.150Z,972.08
2018-05-16T01:23:45.132Z,972.12
2018-05-16T01:24:45.130Z,972.08
2018-05-16T01:25:45.139Z,972.06
2018-05-16T01:26:45.168Z,972.05
2018-05-16T01:27:45.125Z,972.04
2018-05-16T01:28:45.130Z,972.04
2018-05-16T01:29:45.155Z,972.02
2018-05-16T01:30:45.126Z,972.01
2018-05-16T01:31:56.070Z,972.01
2018-05-16T01:32:45.130Z,972.04
2018-05-16T01:33:45.122Z,972.01
2018-05-16T01:34:45.124Z,972.01
2018-05-16T01:35:45.123Z,972.02
2018-05-16T01:36:45.195Z,972.01
2018-05-16T01:37:45.124Z,972.02
2018-05-16T01:38:45.120Z,972.01
2018-05-16T01:39:45.334Z,972.04
2018-05-16T01:40:45.121Z,972.07
2018-05-16T01:41:45.167Z,972.06
2018-05-16T01:42:46.004Z,972.04
2018-05-16T01:43:45.122Z,972.09
2018-05-16T01:44:45.120Z,972.07
2018-05-16T01:45:45.121Z,972.05
2018-05-16T01:46:45.168Z,972.06
2018-05-16T01:47:45.116Z,972.03
2018-05-16T01:48:45.117Z,972.01
2018-05-16T01:49:45.116Z,972.03
2018-05-16T01:50:45.142Z,972.02
2018-05-16T01:51:45.164Z,972.00
2018-05-16T01:52:45.121Z,972.02
2018-05-16T01:53:45.113Z,972.01
2018-05-16T01:54:45.114Z,972.02
2018-05-16T01:55:45.125Z,971.98
2018-05-16T01:56:45.166Z,972.02
2018-05-16T01:57:45.138Z,971.98
2018-05-16T01:58:45.111Z,971.99
2018-05-16T01:59:45.106Z,971.97
2018-05-16T02:00:45.131Z,971.98
2018-05-16T02:01:45.113Z,971.98
2018-05-16T02:03:06.154Z,971.94
2018-05-16T02:03:45.110Z,971.95
2018-05-16T02:04:45.107Z,971.91
2018-05-16T02:05:45.107Z,971.91
2018-05-16T02:06:45.109Z,971.91
2018-05-16T02:07:45.180Z,971.92
2018-05-16T02:08:45.109Z,971.91
2018-05-16T02:09:45.109Z,971.90
2018-05-16T02:10:45.105Z,971.90
2018-05-16T02:11:45.103Z,971.88
2018-05-16T02:12:45.109Z,971.83
2018-05-16T02:13:45.144Z,971.80
2018-05-16T02:14:45.111Z,971.81
2018-05-16T02:15:45.105Z,971.81
2018-05-16T02:16:45.100Z,971.77
2018-05-16T02:17:45.100Z,971.78
2018-05-16T02:18:47.392Z,971.79
2018-05-16T02:19:45.099Z,971.80
2018-05-16T02:20:45.096Z,971.83
2018-05-16T02:21:45.106Z,971.83
2018-05-16T02:22:45.096Z,971.82
2018-05-16T02:23:45.096Z,971.83
2018-05-16T02:24:45.145Z,971.84
2018-05-16T02:25:45.094Z,971.87
2018-05-16T02:26:45.096Z,971.87
2018-05-16T02:27:45.093Z,971.87
2018-05-16T02:28:45.094Z,971.90
2018-05-16T02:29:45.134Z,971.90
2018-05-16T02:30:45.095Z,971.94
2018-05-16T02:31:45.120Z,971.99
2018-05-16T02:32:45.086Z,972.00
2018-05-16T02:33:45.087Z,971.99
2018-05-16T02:34:45.153Z,971.98
2018-05-16T02:35:45.091Z,972.00
2018-05-16T02:36:45.088Z,971.99
2018-05-16T02:37:45.104Z,971.99
2018-05-16T02:38:45.087Z,971.99
2018-05-16T02:39:45.083Z,971.98
2018-05-16T02:40:45.128Z,971.96
2018-05-16T02:41:45.088Z,971.95
2018-05-16T02:42:45.084Z,971.94
2018-05-16T02:43:45.092Z,971.94
2018-05-16T02:44:45.086Z,971.89
2018-05-16T02:45:48.577Z,971.90
2018-05-16T02:46:45.117Z,971.87
2018-05-16T02:47:45.089Z,971.88
2018-05-16T02:48:45.720Z,971.90
2018-05-16T02:49:45.081Z,971.89
2018-05-16T02:50:56.073Z,971.89
2018-05-16T02:51:45.081Z,971.91
2018-05-16T02:52:45.086Z,971.90
2018-05-16T02:53:45.078Z,971.91
2018-05-16T02:54:45.079Z,971.92
2018-05-16T02:55:45.131Z,971.98
2018-05-16T02:56:45.077Z,971.97
2018-05-16T02:57:45.082Z,971.94
2018-05-16T02:58:45.138Z,971.99
2018-05-16T02:59:45.076Z,972.00
2018-05-16T03:00:45.115Z,971.94
2018-05-16T03:01:45.078Z,971.95
2018-05-16T03:02:45.062Z,971.95
2018-05-16T03:03:45.065Z,971.96
2018-05-16T03:04:45.061Z,971.96
2018-05-16T03:05:45.105Z,971.97
2018-05-16T03:06:45.065Z,971.96
2018-05-16T03:07:45.065Z,971.99
2018-05-16T03:08:45.061Z,972.03
2018-05-16T03:09:45.701Z,972.05
2018-05-16T03:10:45.121Z,972.07
2018-05-16T03:11:45.058Z,972.06
2018-05-16T03:12:45.062Z,972.06
2018-05-16T03:13:45.050Z,972.11
2018-05-16T03:14:45.065Z,972.07
2018-05-16T03:15:45.054Z,972.08
2018-05-16T03:16:45.102Z,972.07
2018-05-16T03:17:45.051Z,972.06
2018-05-16T03:18:45.050Z,972.09
2018-05-16T03:19:45.060Z,972.07
2018-05-16T03:20:45.059Z,972.06
2018-05-16T03:21:45.095Z,972.10
2018-05-16T03:22:45.056Z,972.08
2018-05-16T03:23:45.051Z,972.05
2018-05-16T03:24:45.115Z,972.09
2018-05-16T03:25:45.044Z,972.16
2018-05-16T03:26:45.101Z,972.14
2018-05-16T03:27:45.052Z,972.19
2018-05-16T03:28:45.048Z,972.19
2018-05-16T03:29:45.053Z,972.22
2018-05-16T03:30:45.049Z,972.23
2018-05-16T03:31:45.092Z,972.22
2018-05-16T03:32:45.049Z,972.23
2018-05-16T03:33:45.054Z,972.19
2018-05-16T03:34:45.045Z,972.19
2018-05-16T03:35:45.098Z,972.24
2018-05-16T03:36:45.092Z,972.23
2018-05-16T03:37:45.073Z,972.25
2018-05-16T03:38:45.036Z,972.31
2018-05-16T03:39:45.042Z,972.33
2018-05-16T03:40:45.111Z,972.40
2018-05-16T03:41:45.034Z,972.39
2018-05-16T03:42:45.037Z,972.40
2018-05-16T03:43:45.040Z,972.39
2018-05-16T03:44:45.036Z,972.41
2018-05-16T03:45:45.035Z,972.42
2018-05-16T03:46:45.565Z,972.43
2018-05-16T03:47:45.039Z,972.45
2018-05-16T03:48:45.034Z,972.46
2018-05-16T03:49:45.031Z,972.46
2018-05-16T03:50:45.401Z,972.51
2018-05-16T03:51:45.027Z,972.49
2018-05-16T03:52:45.027Z,972.51
2018-05-16T03:53:45.032Z,972.51
2018-05-16T03:54:45.031Z,972.48
2018-05-16T03:55:45.925Z,972.44
2018-05-16T03:56:45.077Z,972.45
2018-05-16T03:57:45.023Z,972.44
2018-05-16T03:58:45.023Z,972.45
2018-05-16T03:59:45.032Z,972.39
2018-05-16T04:00:45.043Z,972.46
2018-05-16T04:01:56.068Z,972.51
2018-05-16T04:02:45.024Z,972.50
2018-05-16T04:03:45.102Z,972.49
2018-05-16T04:04:45.019Z,972.51
2018-05-16T04:05:45.015Z,972.54
2018-05-16T04:06:45.015Z,972.52
2018-05-16T04:07:45.072Z,972.51
2018-05-16T04:08:45.008Z,972.47
2018-05-16T04:09:45.015Z,972.45
2018-05-16T04:10:45.012Z,972.42
2018-05-16T04:11:45.035Z,972.47
2018-05-16T04:12:45.169Z,972.43
2018-05-16T04:13:45.010Z,972.43
2018-05-16T04:14:45.035Z,972.44
2018-05-16T04:15:45.011Z,972.42
2018-05-16T04:16:45.009Z,972.35
2018-05-16T04:17:45.010Z,972.31
2018-05-16T04:18:45.058Z,972.29
2018-05-16T04:19:45.001Z,972.31
2018-05-16T04:20:45.011Z,972.27
2018-05-16T04:21:44.998Z,972.31
2018-05-16T04:22:45.003Z,972.33
2018-05-16T04:23:45.054Z,972.37
2018-05-16T04:24:45.001Z,972.34
2018-05-16T04:25:45.649Z,972.34
2018-05-16T04:26:44.999Z,972.35
2018-05-16T04:27:44.999Z,972.37
2018-05-16T04:28:45.087Z,972.36
2018-05-16T04:29:45.003Z,972.38
2018-05-16T04:30:45.000Z,972.37
2018-05-16T04:31:44.992Z,972.35
2018-05-16T04:32:45.015Z,972.34
2018-05-16T04:33:45.044Z,972.35
2018-05-16T04:34:44.995Z,972.34
2018-05-16T04:35:45.002Z,972.34
2018-05-16T04:36:44.992Z,972.35
2018-05-16T04:37:45.001Z,972.35
2018-05-16T04:38:45.041Z,972.37
2018-05-16T04:39:44.987Z,972.35
2018-05-16T04:40:44.997Z,972.33
2018-05-16T04:41:44.993Z,972.33
2018-05-16T04:42:44.991Z,972.34
2018-05-16T04:43:45.038Z,972.32
2018-05-16T04:44:44.988Z,972.36
2018-05-16T04:45:44.988Z,972.34
2018-05-16T04:46:44.994Z,972.31
2018-05-16T04:47:44.989Z,972.36
2018-05-16T04:48:45.147Z,972.37
2018-05-16T04:49:44.991Z,972.36
2018-05-16T04:50:44.994Z,972.39
2018-05-16T04:51:44.992Z,972.37
2018-05-16T04:52:45.075Z,972.40
2018-05-16T04:53:44.985Z,972.41
2018-05-16T04:54:45.030Z,972.43
2018-05-16T04:55:45.838Z,972.44
2018-05-16T04:56:44.987Z,972.43
2018-05-16T04:57:44.986Z,972.44
2018-05-16T04:58:44.992Z,972.45
2018-05-16T04:59:45.371Z,972.45
2018-05-16T05:00:44.990Z,972.44
2018-05-16T05:01:44.986Z,972.45
2018-05-16T05:02:44.983Z,972.43
2018-05-16T05:03:44.987Z,972.46
2018-05-16T05:04:45.035Z,972.49
2018-05-16T05:05:45.046Z,972.55
2018-05-16T05:06:45.000Z,972.51
2018-05-16T05:07:44.991Z,972.54
2018-05-16T05:08:44.995Z,972.49
2018-05-16T05:09:44.999Z,972.51
2018-05-16T05:10:52.568Z,972.55
2018-05-16T05:11:44.990Z,972.57
2018-05-16T05:12:44.981Z,972.56
2018-05-16T05:13:44.992Z,972.55
2018-05-16T05:14:44.984Z,972.53
2018-05-16T05:15:45.044Z,972.48
2018-05-16T05:16:45.008Z,972.48
2018-05-16T05:17:44.989Z,972.50
2018-05-16T05:18:44.987Z,972.52
2018-05-16T05:19:44.981Z,972.53
2018-05-16T05:20:59.073Z,972.50
2018-05-16T05:21:44.991Z,972.53
2018-05-16T05:22:44.990Z,972.52
2018-05-16T05:23:45.237Z,972.54
2018-05-16T05:24:44.984Z,972.55
2018-05-16T05:25:52.649Z,972.56
2018-05-16T05:26:45.006Z,972.53
2018-05-16T05:27:44.981Z,972.58
2018-05-16T05:28:44.984Z,972.60
2018-05-16T05:29:44.981Z,972.53
2018-05-16T05:30:45.709Z,972.54
2018-05-16T05:31:44.987Z,972.56
2018-05-16T05:32:44.986Z,972.56
2018-05-16T05:33:44.984Z,972.54
2018-05-16T05:34:44.996Z,972.57
2018-05-16T05:35:45.045Z,972.57
2018-05-16T05:36:44.989Z,972.58
2018-05-16T05:37:45.430Z,972.60
2018-05-16T05:38:44.984Z,972.61
2018-05-16T05:39:44.983Z,972.61
2018-05-16T05:40:46.568Z,972.58
2018-05-16T05:41:44.990Z,972.59
2018-05-16T05:42:44.979Z,972.61
2018-05-16T05:43:44.984Z,972.56
2018-05-16T05:44:44.987Z,972.56
2018-05-16T05:48:48.339Z,972.53
2018-05-16T05:49:48.288Z,972.53
2018-05-16T05:55:58.329Z,972.61
2018-05-16T05:56:23.229Z,972.62
2018-05-16T05:57:23.244Z,972.64
2018-05-16T05:58:23.228Z,972.64
2018-05-16T05:59:23.225Z,972.58
2018-05-16T06:00:23.233Z,972.60
2018-05-16T06:01:23.300Z,972.59
2018-05-16T06:02:23.229Z,972.58
2018-05-16T06:03:23.229Z,972.61
2018-05-16T06:04:23.249Z,972.62
2018-05-16T06:05:23.313Z,972.59
2018-05-16T06:07:54.869Z,972.60
2018-05-16T06:08:54.825Z,972.58
2018-05-16T06:09:54.830Z,972.57
2018-05-16T06:10:54.831Z,972.56
2018-05-16T06:11:54.988Z,972.57
2018-05-16T06:12:54.833Z,972.53
2018-05-16T06:13:54.833Z,972.53
2018-05-16T06:14:54.834Z,972.55
2018-05-16T06:15:54.839Z,972.55
2018-05-16T06:16:54.898Z,972.56
2018-05-16T06:17:54.840Z,972.60
2018-05-16T06:18:54.871Z,972.61
2018-05-16T06:19:54.862Z,972.61
2018-05-16T06:20:54.838Z,972.62
2018-05-16T06:21:54.882Z,972.62
2018-05-16T06:22:54.859Z,972.62
2018-05-16T06:23:54.840Z,972.59
2018-05-16T06:24:54.851Z,972.58
2018-05-16T06:25:54.840Z,972.57
2018-05-16T06:26:55.012Z,972.53
2018-05-16T06:27:54.900Z,972.55
2018-05-16T06:28:54.848Z,972.57
2018-05-16T06:29:54.854Z,972.59
2018-05-16T06:30:54.847Z,972.58
2018-05-16T06:31:54.901Z,972.58
2018-05-16T06:32:54.855Z,972.55
2018-05-16T06:33:54.848Z,972.57
2018-05-16T06:34:54.852Z,972.54
2018-05-16T06:35:55.555Z,972.57
2018-05-16T06:36:55.488Z,972.57
2018-05-16T06:37:54.857Z,972.59
2018-05-16T06:38:54.860Z,972.57
2018-05-16T06:39:54.870Z,972.60
2018-05-16T06:40:54.853Z,972.60
2018-05-16T06:45:19.845Z,972.60
2018-05-16T06:45:58.244Z,972.63
2018-05-16T06:46:58.189Z,972.61
2018-05-16T06:47:58.252Z,972.63
2018-05-16T06:48:58.189Z,972.62
2018-05-16T06:49:58.220Z,972.65
2018-05-16T06:50:58.193Z,972.66
2018-05-16T06:51:58.185Z,972.69
2018-05-16T06:54:47.951Z,972.72
2018-05-16T06:55:30.785Z,972.69
2018-05-16T06:56:31.356Z,972.68
2018-05-16T06:57:45.310Z,972.71
2018-05-16T06:58:30.414Z,972.66
2018-05-16T06:59:30.236Z,972.68
2018-05-16T07:00:29.850Z,972.66
2018-05-16T07:01:29.873Z,972.69
2018-05-16T07:02:51.077Z,972.71
2018-05-16T07:03:29.859Z,972.73
2018-05-16T07:04:29.860Z,972.71
2018-05-16T07:05:29.856Z,972.73
2018-05-16T07:06:29.855Z,972.73
2018-05-16T07:07:29.896Z,972.73
2018-05-16T07:08:29.872Z,972.73
2018-05-16T07:09:29.865Z,972.70
2018-05-16T07:10:29.864Z,972.71
2018-05-16T07:11:29.868Z,972.71
2018-05-16T07:14:04.637Z,972.72
2018-05-16T07:15:01.558Z,972.74
2018-05-16T07:16:01.562Z,972.78
2018-05-16T07:17:02.120Z,972.78
2018-05-16T07:18:01.570Z,972.77
2018-05-16T07:19:01.572Z,972.83
2018-05-16T07:20:01.565Z,972.80
2018-05-16T07:21:01.567Z,972.84
2018-05-16T07:22:02.129Z,972.82
2018-05-16T07:23:01.575Z,972.87
2018-05-16T07:24:01.579Z,972.87
2018-05-16T07:25:01.574Z,972.91
2018-05-16T07:26:01.579Z,972.86
2018-05-16T07:27:01.626Z,972.85
2018-05-16T07:28:01.574Z,972.84
2018-05-16T07:29:01.578Z,972.85
2018-05-16T07:30:01.580Z,972.82
2018-05-16T07:31:01.583Z,972.86
2018-05-16T07:32:01.633Z,972.88
2018-05-16T07:33:01.587Z,972.86
2018-05-16T07:34:01.711Z,972.92
2018-05-16T07:35:01.600Z,972.88
2018-05-16T07:36:01.740Z,972.90
2018-05-16T07:37:01.588Z,972.89
2018-05-16T07:38:01.671Z,972.89
2018-05-16T07:39:01.592Z,972.85
2018-05-16T07:40:01.600Z,972.88
2018-05-16T07:41:01.644Z,972.84
2018-05-16T07:45:04.996Z,972.81
2018-05-16T07:46:04.953Z,972.80
2018-05-16T07:47:05.150Z,972.81
2018-05-16T07:48:04.961Z,972.80
2018-05-16T07:49:04.960Z,972.82
2018-05-16T07:50:04.959Z,972.82
2018-05-16T07:51:04.976Z,972.83
2018-05-16T07:52:19.059Z,972.83
2018-05-16T07:53:04.970Z,972.89
2018-05-16T07:54:04.989Z,972.92
2018-05-16T07:55:04.974Z,972.96
2018-05-16T07:56:05.015Z,972.92
2018-05-16T07:57:08.066Z,972.95
2018-05-16T07:58:05.849Z,972.92
2018-05-16T07:59:05.012Z,972.91
2018-05-16T08:00:04.978Z,972.93
2018-05-16T08:01:04.995Z,972.92
2018-05-16T08:02:05.030Z,972.96
2018-05-16T08:03:04.991Z,972.96
2018-05-16T08:04:04.991Z,972.92
2018-05-16T08:05:06.646Z,972.95
2018-05-16T08:06:04.991Z,972.96
2018-05-16T08:07:05.040Z,973.00
2018-05-16T08:08:05.004Z,972.97
2018-05-16T08:09:05.007Z,972.95
2018-05-16T08:10:05.017Z,972.94
2018-05-16T08:11:05.053Z,972.93
2018-05-16T08:12:05.007Z,972.94
2018-05-16T08:13:05.004Z,972.94
2018-05-16T08:14:05.005Z,972.97
2018-05-16T08:15:05.027Z,972.91
2018-05-16T08:16:05.061Z,972.90
2018-05-16T08:17:05.030Z,972.95
2018-05-16T08:18:05.032Z,972.92
2018-05-16T08:19:05.021Z,972.95
2018-05-16T08:20:05.031Z,972.96
2018-05-16T08:21:05.084Z,972.94
2018-05-16T08:22:05.030Z,972.95
2018-05-16T08:23:05.037Z,973.00
2018-05-16T08:24:05.043Z,972.98
2018-05-16T08:25:05.048Z,972.98
2018-05-16T08:26:05.043Z,972.96
2018-05-16T08:27:05.088Z,973.01
2018-05-16T08:28:05.041Z,972.99
2018-05-16T08:29:05.060Z,973.00
2018-05-16T08:30:05.059Z,973.01
2018-05-16T08:31:07.172Z,973.00
2018-05-16T08:32:05.057Z,972.96
2018-05-16T08:33:05.067Z,972.98
2018-05-16T08:34:05.060Z,972.99
2018-05-16T08:35:05.063Z,973.00
2018-05-16T08:36:05.335Z,973.01
2018-05-16T08:37:05.073Z,972.99
2018-05-16T08:38:05.559Z,973.06
2018-05-16T08:39:05.070Z,973.07
2018-05-16T08:40:06.368Z,973.06
2018-05-16T08:41:34.924Z,973.10
2018-05-16T08:42:05.086Z,973.07
2018-05-16T08:43:05.145Z,973.11
2018-05-16T08:44:05.103Z,973.08
2018-05-16T08:45:05.098Z,973.11
2018-05-16T08:47:36.948Z,973.15
2018-05-16T08:48:38.367Z,973.12
2018-05-16T08:49:36.952Z,973.15
2018-05-16T08:50:55.353Z,973.16
2018-05-16T08:51:39.173Z,973.18
2018-05-16T08:52:36.983Z,973.24
2018-05-16T08:53:37.090Z,973.22
2018-05-16T08:54:36.952Z,973.27
2018-05-16T08:58:41.729Z,973.23
2018-05-16T08:59:41.441Z,973.19
2018-05-16T09:00:41.433Z,973.22
2018-05-16T09:01:41.065Z,973.21
2018-05-16T09:02:40.831Z,973.19
2018-05-16T09:03:40.836Z,973.21
2018-05-16T09:04:42.234Z,973.24
2018-05-16T09:07:13.569Z,973.21
2018-05-16T09:08:12.433Z,973.22
2018-05-16T09:09:13.048Z,973.23
2018-05-16T09:10:12.440Z,973.22
2018-05-16T09:11:26.591Z,973.23
2018-05-16T09:12:12.934Z,973.18
2018-05-16T09:13:12.892Z,973.18
2018-05-16T09:14:12.434Z,973.18
2018-05-16T09:15:12.442Z,973.18
2018-05-16T09:16:12.760Z,973.18
2018-05-16T09:17:12.503Z,973.22
2018-05-16T09:18:12.450Z,973.22
2018-05-16T09:19:12.440Z,973.22
2018-05-16T09:20:12.448Z,973.26
2018-05-16T09:21:21.082Z,973.26
2018-05-16T09:22:13.392Z,973.27
2018-05-16T09:23:12.466Z,973.26
2018-05-16T09:24:12.453Z,973.24
2018-05-16T09:25:12.487Z,973.19
2018-05-16T09:26:16.260Z,973.17
2018-05-16T09:27:12.578Z,973.17
2018-05-16T09:28:12.471Z,973.17
2018-05-16T09:29:12.485Z,973.17
2018-05-16T09:30:12.514Z,973.17
2018-05-16T09:36:25.514Z,973.21
2018-05-16T09:36:47.425Z,973.18
2018-05-16T09:37:47.427Z,973.19
2018-05-16T09:38:47.431Z,973.19
2018-05-16T09:39:47.429Z,973.20
2018-05-16T09:40:47.454Z,973.22
2018-05-16T09:41:52.521Z,973.20
2018-05-16T09:42:47.439Z,973.21
2018-05-16T09:43:48.398Z,973.22
2018-05-16T09:44:47.446Z,973.26
2018-05-16T09:45:47.562Z,973.27
2018-05-16T09:46:58.025Z,973.26
2018-05-16T09:47:47.470Z,973.25
2018-05-16T09:48:47.451Z,973.24
2018-05-16T09:49:47.456Z,973.27
2018-05-16T09:50:47.458Z,973.27
2018-05-16T09:51:47.507Z,973.29
2018-05-16T09:52:47.464Z,973.31
2018-05-16T09:53:48.385Z,973.30
2018-05-16T09:54:47.484Z,973.26
2018-05-16T09:55:47.567Z,973.29
2018-05-16T09:56:47.524Z,973.26
2018-05-16T09:57:47.479Z,973.27
2018-05-16T09:58:47.489Z,973.25
2018-05-16T09:59:47.497Z,973.24
2018-05-16T10:00:47.502Z,973.21
2018-05-16T10:01:47.568Z,973.26
2018-05-16T10:02:47.593Z,973.18
2018-05-16T10:03:48.072Z,973.25
2018-05-16T10:04:47.587Z,973.20
2018-05-16T10:05:47.516Z,973.23
2018-05-16T10:06:53.174Z,973.24
2018-05-16T10:07:47.525Z,973.23
2018-05-16T10:08:47.535Z,973.25
2018-05-16T10:09:47.550Z,973.21
2018-05-16T10:10:47.539Z,973.25
2018-05-16T10:13:20.046Z,973.25
2018-05-16T10:14:19.222Z,973.25
2018-05-16T10:15:19.228Z,973.24
2018-05-16T10:16:19.239Z,973.21
2018-05-16T10:17:33.314Z,973.21
2018-05-16T10:18:19.242Z,973.16
2018-05-16T10:19:19.251Z,973.23
2018-05-16T10:20:19.369Z,973.21
2018-05-16T10:21:19.259Z,973.23
2018-05-16T10:25:44.675Z,973.26
2018-05-16T10:26:22.609Z,973.28
2018-05-16T10:27:23.186Z,973.27
2018-05-16T10:28:22.618Z,973.33
2018-05-16T10:29:22.625Z,973.29
2018-05-16T10:30:22.651Z,973.28
2018-05-16T10:31:43.685Z,973.29
2018-05-16T10:32:22.638Z,973.25
2018-05-16T10:33:22.641Z,973.22
2018-05-16T10:34:22.657Z,973.27
2018-05-16T10:35:22.650Z,973.26
2018-05-16T10:36:22.662Z,973.29
2018-05-16T10:37:22.717Z,973.25
2018-05-16T10:38:22.669Z,973.25
2018-05-16T10:39:22.878Z,973.22
2018-05-16T10:40:22.678Z,973.21
2018-05-16T10:41:22.742Z,973.17
2018-05-16T10:42:22.749Z,973.14
2018-05-16T10:43:22.689Z,973.14
2018-05-16T10:44:22.697Z,973.15
2018-05-16T10:45:22.834Z,973.19
2018-05-16T10:46:22.708Z,973.15
2018-05-16T10:47:22.710Z,973.18
2018-05-16T10:48:22.774Z,973.18
2018-05-16T10:49:22.720Z,973.20
2018-05-16T10:50:22.729Z,973.16
2018-05-16T10:51:22.722Z,973.21
2018-05-16T10:52:22.777Z,973.20
2018-05-16T10:53:47.563Z,973.17
2018-05-16T10:54:22.735Z,973.16
2018-05-16T10:55:22.763Z,973.20
2018-05-16T10:56:22.749Z,973.15
2018-05-16T10:57:22.891Z,973.20
2018-05-16T10:58:22.755Z,973.17
2018-05-16T10:59:22.762Z,973.19
2018-05-16T11:00:22.766Z,973.16
2018-05-16T11:01:22.768Z,973.13
2018-05-16T11:02:22.798Z,973.16
2018-05-16T11:03:22.847Z,973.16
2018-05-16T11:04:22.777Z,973.12
2018-05-16T11:05:22.773Z,973.14
2018-05-16T11:06:22.787Z,973.16
2018-05-16T11:07:37.533Z,973.16
2018-05-16T11:08:22.796Z,973.11
2018-05-16T11:09:22.809Z,973.15
2018-05-16T11:10:22.807Z,973.13
2018-05-16T11:11:22.797Z,973.16
2018-05-16T11:12:22.842Z,973.14
2018-05-16T11:13:22.797Z,973.15
2018-05-16T11:14:22.805Z,973.12
2018-05-16T11:15:22.802Z,973.15
2018-05-16T11:16:23.712Z,973.17
2018-05-16T11:17:22.810Z,973.14
2018-05-16T11:18:23.602Z,973.16
2018-05-16T11:19:22.815Z,973.11
2018-05-16T11:20:22.818Z,973.13
2018-05-16T11:21:22.890Z,973.14
2018-05-16T11:22:22.995Z,973.14
2018-05-16T11:23:22.844Z,973.08
2018-05-16T11:24:22.831Z,973.12
2018-05-16T11:25:22.829Z,973.09
2018-05-16T11:26:22.883Z,973.09
2018-05-16T11:27:22.840Z,973.09
2018-05-16T11:28:22.836Z,973.09
2018-05-16T11:29:22.843Z,973.10
2018-05-16T11:30:22.865Z,973.10
2018-05-16T11:31:23.951Z,973.09
2018-05-16T11:32:22.849Z,973.07
2018-05-16T11:33:22.854Z,973.07
2018-05-16T11:34:22.871Z,973.08
2018-05-16T11:35:22.876Z,973.11
2018-05-16T11:36:22.869Z,973.07
2018-05-16T11:37:22.901Z,973.11
2018-05-16T11:38:22.860Z,973.11
2018-05-16T11:39:22.863Z,973.11
2018-05-16T11:40:22.863Z,973.10
2018-05-16T11:41:22.873Z,973.12
2018-05-16T11:42:22.924Z,973.10
2018-05-16T11:43:22.883Z,973.09
2018-05-16T11:44:22.905Z,973.14
2018-05-16T11:45:22.890Z,973.14
2018-05-16T11:46:24.703Z,973.07
2018-05-16T11:47:23.836Z,973.12
2018-05-16T11:48:27.527Z,973.09
2018-05-16T11:49:23.157Z,973.14
2018-05-16T11:50:22.910Z,973.14
2018-05-16T11:51:22.940Z,973.09
2018-05-16T11:52:22.897Z,973.10
2018-05-16T11:53:22.991Z,973.10
2018-05-16T11:54:22.914Z,973.09
2018-05-16T11:55:22.915Z,973.14
2018-05-16T11:56:22.958Z,973.11
2018-05-16T11:57:23.887Z,973.09
2018-05-16T11:58:22.923Z,973.09
2018-05-16T11:59:22.948Z,973.13
2018-05-16T12:00:22.937Z,973.13
2018-05-16T12:01:22.982Z,973.09
2018-05-16T12:02:22.946Z,973.14
2018-05-16T12:03:22.943Z,973.18
2018-05-16T12:04:22.943Z,973.14
2018-05-16T12:05:22.945Z,973.12
2018-05-16T12:06:22.996Z,973.17
2018-05-16T12:07:22.943Z,973.16
2018-05-16T12:08:22.939Z,973.11
2018-05-16T12:09:22.955Z,973.13
2018-05-16T12:10:22.957Z,973.18
2018-05-16T12:11:22.985Z,973.18
2018-05-16T12:12:23.013Z,973.14
2018-05-16T12:13:22.960Z,973.20
2018-05-16T12:14:22.963Z,973.13
2018-05-16T12:15:22.966Z,973.14
2018-05-16T12:16:23.079Z,973.16
2018-05-16T12:17:22.971Z,973.18
2018-05-16T12:18:22.971Z,973.16
2018-05-16T12:19:22.983Z,973.18
2018-05-16T12:20:22.979Z,973.18
2018-05-16T12:21:22.978Z,973.13
2018-05-16T12:22:23.051Z,973.14
2018-05-16T12:23:22.991Z,973.11
2018-05-16T12:24:22.994Z,973.05
2018-05-16T12:25:23.000Z,973.07
2018-05-16T12:26:23.292Z,973.07
2018-05-16T12:27:23.057Z,973.07
2018-05-16T12:28:23.014Z,973.11
2018-05-16T12:29:23.143Z,973.07
2018-05-16T12:30:23.019Z,973.07
2018-05-16T12:31:23.025Z,973.11
2018-05-16T12:32:26.587Z,973.14
2018-05-16T12:33:23.026Z,973.10
2018-05-16T12:34:23.019Z,973.08
2018-05-16T12:35:23.027Z,973.09
2018-05-16T12:36:23.026Z,973.12
2018-05-16T12:41:58.028Z,973.16
2018-05-16T12:42:57.972Z,973.18
2018-05-16T12:43:57.982Z,973.13
2018-05-16T12:44:57.978Z,973.18
2018-05-16T12:45:57.977Z,973.14
2018-05-16T12:46:58.033Z,973.19
2018-05-16T12:47:57.973Z,973.19
2018-05-16T12:48:57.985Z,973.19
2018-05-16T12:49:58.177Z,973.21
2018-05-16T12:50:58.541Z,973.30
2018-05-16T12:51:58.384Z,973.18
2018-05-16T12:52:58.062Z,973.16
2018-05-16T12:53:58.042Z,973.16
2018-05-16T12:54:58.006Z,973.19
2018-05-16T12:55:58.015Z,973.16
2018-05-16T12:56:58.042Z,973.16
2018-05-16T12:58:08.580Z,973.19
2018-05-16T12:58:58.023Z,973.15
2018-05-16T12:59:58.027Z,973.16
2018-05-16T13:00:58.051Z,973.17
2018-05-16T13:01:58.275Z,973.19
2018-05-16T13:02:58.054Z,973.20
2018-05-16T13:03:58.067Z,973.22
2018-05-16T13:04:58.079Z,973.19
2018-05-16T13:05:58.063Z,973.23
2018-05-16T13:06:58.226Z,973.17